Time;durP1;ratioP1;P1;durP2;ratioP2;P2;SDS_P1;SDS_P2;PMS_P1;PMS_P2;Temp;Humidity;BMP_temperature;BMP_pressure;BME280_temperature;BME280_humidity;BME280_pressure;Samples;Min_cycle;Max_cycle;Signal;HPM_P1;HPM_P2
2022/10/29 00:02:27;;;;;;;17.50;5.20;;;;;;;17.00;97.17;101451.56;5040561;28;20041;-78
2022/10/29 00:05:14;;;;;;;8.10;4.53;;;;;;;17.01;97.42;101450.69;5038246;28;20076;-78
2022/10/29 00:08:01;;;;;;;8.32;4.45;;;;;;;17.02;97.71;101452.38;5035466;28;20380;-78
2022/10/29 00:10:48;;;;;;;11.13;4.85;;;;;;;17.05;98.05;101462.03;5041307;28;20064;-79
2022/10/29 00:13:35;;;;;;;10.65;4.65;;;;;;;17.04;97.76;101457.66;5047758;28;20146;-80
2022/10/29 00:16:26;;;;;;;11.13;5.20;;;;;;;17.03;97.73;101455.94;5049238;28;20084;-79
2022/10/29 00:19:13;;;;;;;10.48;5.18;;;;;;;17.02;98.13;101452.38;5040961;28;20122;-78
2022/10/29 00:22:00;;;;;;;14.20;5.28;;;;;;;17.01;98.30;101452.44;5038199;28;20131;-80
2022/10/29 00:24:46;;;;;;;10.40;4.18;;;;;;;16.99;98.08;101451.63;5048010;28;20056;-79
2022/10/29 00:27:33;;;;;;;9.60;4.63;;;;;;;16.98;98.19;101449.88;5042092;28;20051;-82
2022/10/29 00:30:20;;;;;;;11.18;5.00;;;;;;;16.95;98.63;101450.81;5033517;28;20604;-81
2022/10/29 00:33:07;;;;;;;13.13;4.82;;;;;;;16.91;99.20;101450.91;5037032;28;20672;-77
2022/10/29 00:36:04;;;;;;;5.85;4.35;;;;;;;16.88;99.27;101454.44;5035489;28;20048;-77
2022/10/29 00:38:51;;;;;;;12.30;5.28;;;;;;;16.85;99.73;101450.09;5044823;28;20499;-75
2022/10/29 00:41:38;;;;;;;7.22;4.70;;;;;;;16.82;99.80;101449.31;5052487;28;20055;-76
2022/10/29 00:44:34;;;;;;;12.93;4.45;;;;;;;16.78;100.00;101456.44;5053741;28;20044;-76
2022/10/29 00:47:30;;;;;;;11.13;4.47;;;;;;;16.74;100.00;101453.88;5060757;28;20052;-76
2022/10/29 00:50:17;;;;;;;12.85;4.95;;;;;;;16.64;100.00;101450.59;5050707;28;20403;-77
2022/10/29 00:53:04;;;;;;;9.77;3.95;;;;;;;16.56;100.00;101460.44;5048899;28;20063;-77
2022/10/29 00:55:51;;;;;;;9.55;3.60;;;;;;;16.48;100.00;101471.19;5048731;28;20048;-77
2022/10/29 00:58:38;;;;;;;9.88;4.40;;;;;;;16.48;100.00;101474.69;5044151;28;20041;-77
2022/10/29 01:01:24;;;;;;;10.30;4.93;;;;;;;16.49;100.00;101468.50;5050693;28;20040;-78
2022/10/29 01:04:12;;;;;;;11.75;4.82;;;;;;;16.51;100.00;101463.19;5039641;28;20747;-80
2022/10/29 01:06:58;;;;;;;6.18;3.30;;;;;;;16.52;100.00;101464.94;5034829;28;20682;-77
2022/10/29 01:09:45;;;;;;;10.80;4.22;;;;;;;16.51;100.00;101450.84;5040923;28;20041;-78
2022/10/29 01:13:04;;;;;;;10.25;4.25;;;;;;;16.51;100.00;101468.47;5048545;28;20048;-77
2022/10/29 01:16:23;;;;;;;14.98;4.70;;;;;;;16.50;100.00;101457.03;5055882;28;20068;-83
2022/10/29 01:19:46;;;;;;;11.35;4.82;;;;;;;16.49;100.00;101465.88;5046405;28;20049;-79
2022/10/29 01:22:49;;;;;;;13.07;4.88;;;;;;;16.49;100.00;101462.34;5059255;28;20048;-78
2022/10/29 01:25:47;;;;;;;7.30;4.22;;;;;;;16.44;100.00;101462.44;5060903;28;20647;-78
2022/10/29 01:29:23;;;;;;;9.18;4.22;;;;;;;16.41;100.00;101461.63;5054564;28;20056;-76
2022/10/29 01:32:33;;;;;;;8.52;4.13;;;;;;;16.29;100.00;101455.69;5032848;28;20049;-78
2022/10/29 01:36:04;;;;;;;9.32;5.05;;;;;;;16.12;100.00;101456.03;5050308;28;20044;-76
2022/10/29 01:39:22;;;;;;;7.35;3.80;;;;;;;15.99;100.00;101460.66;5052613;28;20041;-79
2022/10/29 01:42:16;;;;;;;11.77;5.13;;;;;;;15.93;100.00;101466.06;5037208;28;20045;-76
2022/10/29 01:45:27;;;;;;;;;;;;;;;15.93;100.00;101465.19;5042331;28;20044;-76
2022/10/29 01:48:27;;;;;;;13.15;5.20;;;;;;;15.90;100.00;101466.13;5044208;28;20007;-78
2022/10/29 01:51:21;;;;;;;6.45;4.95;;;;;;;15.86;100.00;101462.66;5041385;28;20040;-77
2022/10/29 01:54:10;;;;;;;13.82;6.22;;;;;;;15.87;100.00;101468.81;5015881;28;20045;-78
2022/10/29 01:56:59;;;;;;;10.15;5.45;;;;;;;15.93;100.00;101481.91;5039141;28;20060;-80
2022/10/29 01:59:46;;;;;;;10.80;5.40;;;;;;;16.01;100.00;101479.16;5035153;28;20052;-80
2022/10/29 02:03:02;;;;;;;17.83;6.88;;;;;;;16.07;100.00;101475.50;5043726;28;20044;-78
2022/10/29 02:06:07;;;;;;;14.23;7.75;;;;;;;16.09;100.00;101471.03;5038499;28;20513;-81
2022/10/29 02:09:09;;;;;;;16.08;7.15;;;;;;;16.08;100.00;101469.34;5037045;28;20215;-81
2022/10/29 02:12:21;;;;;;;15.02;6.45;;;;;;;16.03;100.00;101465.00;5033702;28;20041;-82
2022/10/29 02:15:19;;;;;;;11.38;5.40;;;;;;;15.95;100.00;101456.34;5050609;28;20707;-78
2022/10/29 02:18:08;;;;;;;10.95;6.00;;;;;;;15.90;100.00;101463.47;5043286;28;20733;-80
2022/10/29 02:20:54;;;;;;;11.13;6.53;;;;;;;15.87;100.00;101472.31;5041839;28;20059;-79
2022/10/29 02:23:41;;;;;;;10.00;5.15;;;;;;;15.85;100.00;101473.25;5040213;28;20040;-80
2022/10/29 02:26:28;;;;;;;6.68;4.13;;;;;;;15.85;100.00;101467.97;5057900;28;20410;-77
2022/10/29 02:29:15;;;;;;;10.23;5.47;;;;;;;15.86;100.00;101462.66;5045970;28;20043;-81
2022/10/29 02:32:01;;;;;;;7.93;5.22;;;;;;;15.86;100.00;101451.22;5041631;28;20475;-80
2022/10/29 02:34:48;;;;;;;14.15;6.47;;;;;;;15.81;100.00;101453.09;5048760;28;20055;-76
2022/10/29 02:37:35;;;;;;;9.43;5.28;;;;;;;15.75;100.00;101446.13;5039282;28;20689;-78
2022/10/29 02:40:22;;;;;;;13.27;6.45;;;;;;;15.66;100.00;101444.50;5044506;28;20080;-77
2022/10/29 02:43:09;;;;;;;8.68;4.63;;;;;;;15.52;100.00;101430.69;5049495;28;20044;-77
2022/10/29 02:46:18;;;;;;;11.43;4.97;;;;;;;15.42;100.00;101424.66;5043609;28;20041;-77
2022/10/29 02:49:07;;;;;;;12.10;4.85;;;;;;;15.34;100.00;101429.22;5049377;28;20048;-80
2022/10/29 02:51:53;;;;;;;8.80;5.32;;;;;;;15.21;100.00;101431.19;5041523;28;20048;-79
2022/10/29 02:54:41;;;;;;;8.60;4.65;;;;;;;15.06;100.00;101424.38;5035942;28;20047;-80
2022/10/29 02:57:28;;;;;;;11.85;5.40;;;;;;;14.95;100.00;101429.81;5050126;28;20515;-78
2022/10/29 03:00:15;;;;;;;12.35;6.13;;;;;;;14.80;100.00;101433.53;5042115;28;20044;-75
2022/10/29 03:03:02;;;;;;;9.98;6.43;;;;;;;14.68;100.00;101431.09;5039239;28;20057;-80
2022/10/29 03:05:49;;;;;;;10.90;6.28;;;;;;;14.68;100.00;101425.81;5038778;28;20055;-81
2022/10/29 03:08:36;;;;;;;11.73;5.70;;;;;;;14.60;100.00;101417.09;5045586;28;20045;-78
2022/10/29 03:11:22;;;;;;;9.80;5.45;;;;;;;14.55;100.00;101419.81;5036358;28;20049;-78
2022/10/29 03:14:09;;;;;;;8.38;5.38;;;;;;;14.47;100.00;101416.38;5046571;28;20040;-81
2022/10/29 03:16:56;;;;;;;10.30;5.80;;;;;;;14.41;100.00;101413.84;5037782;28;20476;-76
2022/10/29 03:19:45;;;;;;;12.57;6.63;;;;;;;14.32;100.00;101409.56;5057807;28;20040;-77
2022/10/29 03:22:32;;;;;;;11.68;6.03;;;;;;;14.25;100.00;101410.50;5048563;28;20040;-77
2022/10/29 03:25:18;;;;;;;21.52;8.30;;;;;;;14.21;100.00;101405.28;5047482;28;20591;-78
2022/10/29 03:28:08;;;;;;;10.98;6.32;;;;;;;14.19;100.00;101414.09;5034771;28;20755;-79
2022/10/29 03:30:56;;;;;;;15.45;6.18;;;;;;;14.12;100.00;101418.56;5036602;28;20055;-78
2022/10/29 03:33:44;;;;;;;16.83;8.00;;;;;;;14.07;100.00;101413.34;5052602;28;20144;-77
2022/10/29 03:36:31;;;;;;;20.67;8.27;;;;;;;14.04;100.00;101405.50;5041126;28;20090;-79
2022/10/29 03:39:18;;;;;;;18.77;7.45;;;;;;;14.03;100.00;101408.16;5052889;28;20134;-80
2022/10/29 03:42:07;;;;;;;11.85;7.22;;;;;;;14.02;100.00;101415.16;5050949;28;20048;-80
2022/10/29 03:44:54;;;;;;;21.63;8.30;;;;;;;14.04;100.00;101415.13;5048182;28;20064;-78
2022/10/29 03:47:41;;;;;;;17.75;9.00;;;;;;;14.04;100.00;101418.66;5054040;28;20041;-78
2022/10/29 03:50:28;;;;;;;13.52;8.25;;;;;;;14.03;100.00;101419.53;5038212;28;20584;-78
2022/10/29 03:53:16;;;;;;;15.85;7.30;;;;;;;14.05;100.00;101420.41;5049140;28;20040;-79
2022/10/29 03:56:05;;;;;;;17.27;7.70;;;;;;;14.11;100.00;101426.50;5045898;28;20053;-76
2022/10/29 03:58:52;;;;;;;15.60;7.65;;;;;;;14.15;100.00;101420.31;5061172;28;20198;-76
2022/10/29 04:01:39;;;;;;;15.85;7.60;;;;;;;14.15;100.00;101415.88;5041587;28;20434;-77
2022/10/29 04:04:28;;;;;;;13.57;7.22;;;;;;;14.11;100.00;101422.09;5051932;28;20032;-78
2022/10/29 04:07:18;;;;;;;13.07;6.82;;;;;;;14.05;100.00;101417.78;5032218;28;20453;-80
2022/10/29 04:10:06;;;;;;;16.20;6.90;;;;;;;14.03;100.00;101432.69;5049489;28;20063;-81
2022/10/29 04:12:53;;;;;;;19.40;7.28;;;;;;;13.99;100.00;101425.72;5040991;28;20040;-78
2022/10/29 04:15:40;;;;;;;13.98;7.47;;;;;;;13.97;100.00;101427.50;5050731;28;20052;-77
2022/10/29 04:18:27;;;;;;;10.68;5.90;;;;;;;13.99;100.00;101430.13;5051265;28;20044;-80
2022/10/29 04:21:14;;;;;;;11.32;6.68;;;;;;;13.95;100.00;101428.41;5042600;28;20045;-76
2022/10/29 04:24:01;;;;;;;7.75;6.25;;;;;;;13.87;100.00;101420.56;5034488;28;20049;-76
2022/10/29 04:26:48;;;;;;;13.10;7.75;;;;;;;13.81;100.00;101420.66;5037374;28;20049;-78
2022/10/29 04:29:37;;;;;;;13.38;6.43;;;;;;;13.75;100.00;101424.22;5038410;28;20559;-78
2022/10/29 04:32:23;;;;;;;12.95;6.55;;;;;;;13.70;100.00;101426.00;5041496;28;20044;-78
2022/10/29 04:35:10;;;;;;;16.65;8.63;;;;;;;13.64;100.00;101428.72;5053758;28;20052;-79
2022/10/29 04:37:57;;;;;;;9.90;6.50;;;;;;;13.57;100.00;101427.88;5039085;28;20052;-77
2022/10/29 04:40:44;;;;;;;15.35;6.45;;;;;;;13.53;100.00;101426.16;5044279;28;20123;-76
2022/10/29 04:43:31;;;;;;;11.80;8.32;;;;;;;13.50;100.00;101423.56;5045377;28;20033;-76
2022/10/29 04:46:18;;;;;;;21.60;8.65;;;;;;;13.52;100.00;101432.34;5042554;28;20048;-77
2022/10/29 04:49:10;;;;;;;9.65;5.97;;;;;;;13.48;100.00;101443.75;5046627;28;20060;-80
2022/10/29 04:51:57;;;;;;;12.32;6.18;;;;;;;13.45;100.00;101442.00;5061327;28;20044;-77
2022/10/29 04:54:46;;;;;;;15.35;8.05;;;;;;;13.47;100.00;101444.66;5051179;28;20510;-75
2022/10/29 04:57:33;;;;;;;12.27;7.55;;;;;;;13.50;100.00;101437.59;5047598;28;20135;-76
2022/10/29 05:00:21;;;;;;;13.55;6.90;;;;;;;13.50;100.00;101437.59;5045440;28;20044;-77
2022/10/29 05:03:08;;;;;;;16.85;7.32;;;;;;;13.46;100.00;101420.09;5044822;28;20041;-76
2022/10/29 05:05:54;;;;;;;17.77;8.65;;;;;;;13.42;100.00;101430.66;5040713;28;20055;-78
2022/10/29 05:08:41;;;;;;;10.52;6.38;;;;;;;13.36;100.00;101426.28;5045582;28;20742;-79
2022/10/29 05:11:28;;;;;;;16.30;8.30;;;;;;;13.34;100.00;101423.66;5054808;28;20049;-77
2022/10/29 05:14:17;;;;;;;15.77;8.32;;;;;;;13.39;100.00;101431.56;5036822;28;20047;-78
2022/10/29 05:17:05;;;;;;;17.67;8.18;;;;;;;13.49;100.00;101429.72;5055388;28;20049;-76
2022/10/29 05:19:52;;;;;;;19.48;8.40;;;;;;;13.61;100.00;101434.88;5035715;28;20500;-78
2022/10/29 05:22:39;;;;;;;16.33;8.82;;;;;;;13.72;100.00;101425.09;5033567;28;20041;-76
2022/10/29 05:25:30;;;;;;;12.63;6.40;;;;;;;13.84;100.00;101433.78;5044615;28;20671;-77
2022/10/29 05:28:20;;;;;;;17.58;8.07;;;;;;;13.93;100.00;101427.56;5037837;28;20056;-78
2022/10/29 05:31:07;;;;;;;13.23;7.13;;;;;;;14.00;100.00;101424.84;5044931;28;20041;-77
2022/10/29 05:33:53;;;;;;;15.68;7.18;;;;;;;14.05;100.00;101425.66;5033195;28;20063;-77
2022/10/29 05:36:40;;;;;;;15.23;7.43;;;;;;;14.07;100.00;101417.75;5048842;28;20048;-78
2022/10/29 05:39:27;;;;;;;12.63;6.60;;;;;;;14.00;100.00;101424.84;5048416;28;20048;-78
2022/10/29 05:42:14;;;;;;;13.48;7.95;;;;;;;13.92;100.00;101423.19;5040840;28;20048;-76
2022/10/29 05:45:00;;;;;;;16.08;8.23;;;;;;;13.86;100.00;101424.97;5050511;28;20040;-79
2022/10/29 05:47:48;;;;;;;18.00;8.35;;;;;;;13.89;100.00;101435.47;5052393;28;20049;-77
2022/10/29 05:50:35;;;;;;;17.33;9.13;;;;;;;13.90;100.00;101431.94;5042722;28;20044;-77
2022/10/29 05:53:22;;;;;;;11.43;8.10;;;;;;;13.89;100.00;101437.25;5044356;28;20044;-78
2022/10/29 05:56:08;;;;;;;18.58;7.47;;;;;;;13.92;100.00;101444.22;5049663;28;20048;-77
2022/10/29 05:58:55;;;;;;;13.80;7.20;;;;;;;13.98;100.00;101452.06;5044765;28;20049;-78
2022/10/29 06:01:42;;;;;;;14.68;7.53;;;;;;;14.04;100.00;101444.97;5042993;28;20049;-76
2022/10/29 06:04:29;;;;;;;16.52;7.60;;;;;;;14.11;100.00;101448.41;5056601;28;20037;-75
2022/10/29 06:07:16;;;;;;;13.25;7.53;;;;;;;14.14;100.00;101444.88;5048010;28;20041;-76
2022/10/29 06:10:03;;;;;;;15.27;7.95;;;;;;;14.18;100.00;101447.47;5043194;28;20036;-79
2022/10/29 06:12:50;;;;;;;23.10;8.63;;;;;;;14.22;100.00;101446.53;5055960;28;20055;-78
2022/10/29 06:15:37;;;;;;;14.40;7.90;;;;;;;14.27;100.00;101450.88;5041832;28;20033;-76
2022/10/29 06:18:26;;;;;;;13.55;7.75;;;;;;;14.32;100.00;101456.97;5049898;28;20041;-80
2022/10/29 06:21:13;;;;;;;9.65;6.18;;;;;;;14.38;100.00;101451.63;5049588;28;20044;-78
2022/10/29 06:23:59;;;;;;;18.60;8.20;;;;;;;14.42;100.00;101455.97;5051719;28;20059;-79
2022/10/29 06:26:46;;;;;;;15.55;7.82;;;;;;;14.45;100.00;101461.19;5054123;28;20036;-79
2022/10/29 06:29:33;;;;;;;15.60;7.60;;;;;;;14.50;100.00;101463.78;5044096;28;20047;-77
2022/10/29 06:32:20;;;;;;;17.15;7.50;;;;;;;14.55;100.00;101461.97;5051989;28;20044;-77
2022/10/29 06:35:08;;;;;;;13.55;6.90;;;;;;;14.60;100.00;101464.53;5040837;28;20079;-75
2022/10/29 06:37:56;;;;;;;13.98;7.40;;;;;;;14.64;100.00;101471.53;5050931;28;20041;-77
2022/10/29 06:40:43;;;;;;;15.23;7.70;;;;;;;14.65;100.00;101468.91;5043165;28;20037;-79
2022/10/29 06:43:30;;;;;;;19.02;9.10;;;;;;;14.66;100.00;101467.97;5043076;28;20048;-80
2022/10/29 06:46:17;;;;;;;17.20;7.28;;;;;;;14.67;100.00;101453.91;5044997;28;20048;-78
2022/10/29 06:49:04;;;;;;;16.85;7.07;;;;;;;14.65;100.00;101442.53;5039400;28;20053;-75
2022/10/29 06:51:51;;;;;;;10.95;6.35;;;;;;;14.63;100.00;101448.69;5049374;28;20045;-77
2022/10/29 06:54:38;;;;;;;12.80;6.53;;;;;;;14.57;100.00;101444.34;5050970;28;20736;-75
2022/10/29 06:57:25;;;;;;;19.33;7.80;;;;;;;14.53;100.00;101442.66;5050186;28;20057;-75
2022/10/29 07:00:12;;;;;;;14.60;7.53;;;;;;;14.51;100.00;101447.06;5051082;28;20562;-78
2022/10/29 07:02:59;;;;;;;18.95;8.40;;;;;;;14.48;100.00;101426.03;5037197;28;20055;-80
2022/10/29 07:05:47;;;;;;;18.70;8.88;;;;;;;14.45;100.00;101437.47;5044846;28;20037;-78
2022/10/29 07:08:34;;;;;;;13.57;7.93;;;;;;;14.42;100.00;101436.66;5051676;28;20051;-79
2022/10/29 07:11:21;;;;;;;18.27;9.48;;;;;;;14.39;100.00;101453.34;5044755;28;20052;-76
2022/10/29 07:14:08;;;;;;;14.75;8.45;;;;;;;14.37;100.00;101461.28;5046460;28;20067;-76
2022/10/29 07:16:55;;;;;;;12.90;7.65;;;;;;;14.39;100.00;101454.25;5053912;28;20049;-78
2022/10/29 07:19:42;;;;;;;18.60;8.02;;;;;;;14.41;100.00;101463.91;5057192;28;20056;-77
2022/10/29 07:22:31;;;;;;;11.48;6.50;;;;;;;14.43;100.00;101459.47;5043311;28;20048;-78
2022/10/29 07:25:19;;;;;;;13.07;7.63;;;;;;;14.46;100.00;101468.22;5042783;28;20049;-79
2022/10/29 07:28:16;;;;;;;12.45;7.18;;;;;;;14.48;100.00;101460.28;5039911;28;20049;-78
2022/10/29 07:31:02;;;;;;;10.85;7.88;;;;;;;14.51;100.00;101447.06;5050854;28;20044;-77
2022/10/29 07:33:49;;;;;;;21.75;7.82;;;;;;;14.56;100.00;101451.41;5042821;28;20699;-79
2022/10/29 07:36:36;;;;;;;17.40;9.15;;;;;;;14.61;100.00;101453.09;5039989;28;20041;-76
2022/10/29 07:39:23;;;;;;;13.93;6.85;;;;;;;14.67;100.00;101453.06;5046247;28;20041;-75
2022/10/29 07:42:10;;;;;;;23.05;10.88;;;;;;;14.71;100.00;101452.13;5046698;28;20041;-76
2022/10/29 07:44:56;;;;;;;19.75;8.20;;;;;;;14.77;100.00;101448.53;5049840;28;20072;-75
2022/10/29 07:47:43;;;;;;;15.00;8.93;;;;;;;14.82;100.00;101444.94;5058899;28;20037;-78
2022/10/29 07:50:32;;;;;;;13.07;7.35;;;;;;;14.87;100.00;101448.41;5052912;28;20052;-79
2022/10/29 07:53:19;;;;;;;13.32;7.15;;;;;;;14.94;100.00;101449.19;5036360;28;20053;-79
2022/10/29 07:56:06;;;;;;;18.10;9.02;;;;;;;15.00;100.00;101440.28;5038445;28;20041;-78
2022/10/29 07:58:52;;;;;;;19.10;8.50;;;;;;;15.07;100.00;101436.69;5041218;28;20063;-75
2022/10/29 08:01:40;;;;;;;15.00;6.85;;;;;;;15.15;100.00;101440.06;5044627;28;20041;-79
2022/10/29 08:04:27;;;;;;;11.13;6.43;;;;;;;15.24;100.00;101443.44;5037613;28;20041;-78
2022/10/29 08:07:13;;;;;;;13.40;7.53;;;;;;;15.35;100.00;101442.38;5041515;28;20048;-79
2022/10/29 08:10:00;;;;;;;15.15;7.40;;;;;;;15.51;100.00;101448.28;5054641;28;20128;-78
2022/10/29 08:12:55;;;;;;;19.20;8.07;;;;;;;15.72;100.00;101448.78;5048762;28;20706;-80
2022/10/29 08:15:45;;;;;;;16.90;9.35;;;;;;;15.98;100.00;101445.75;5043504;28;20052;-78
2022/10/29 08:18:32;;;;;;;16.25;7.72;;;;;;;16.17;100.00;101435.66;5049891;28;20032;-75
2022/10/29 08:21:19;;;;;;;13.95;7.47;;;;;;;16.36;100.00;101443.22;5050352;28;20047;-77
2022/10/29 08:24:06;;;;;;;14.00;7.32;;;;;;;16.50;100.00;101432.38;5045787;28;20052;-75
2022/10/29 08:26:53;;;;;;;13.15;6.43;;;;;;;16.62;100.00;101439.16;5039783;28;20041;-77
2022/10/29 08:29:40;;;;;;;16.92;7.00;;;;;;;16.67;100.00;101440.81;5041028;28;20411;-79
2022/10/29 08:32:27;;;;;;;15.85;7.35;;;;;;;16.72;100.00;101445.13;5043116;28;20044;-77
2022/10/29 08:35:14;;;;;;;12.82;6.47;;;;;;;16.77;100.00;101441.47;5054018;28;20494;-78
2022/10/29 08:38:01;;;;;;;17.08;8.00;;;;;;;16.86;100.00;101437.75;5036383;28;20049;-75
2022/10/29 08:41:35;;;;;;;12.07;6.60;;;;;;;16.91;99.97;101445.59;5038759;28;20391;-76
2022/10/29 08:45:06;;;;;;;19.00;7.93;;;;;;;16.99;98.82;101433.97;5054546;28;20041;-80
2022/10/29 08:48:33;;;;;;;11.85;6.53;;;;;;;17.09;98.39;101431.09;5043872;28;20047;-76
2022/10/29 08:51:30;;;;;;;14.50;7.97;;;;;;;17.17;96.08;101426.50;5061293;28;20577;-76
2022/10/29 08:54:17;;;;;;;22.55;7.22;;;;;;;17.25;96.37;101427.19;5041798;28;20047;-77
2022/10/29 08:57:15;;;;;;;22.50;8.77;;;;;;;17.36;95.50;101433.09;5046556;28;20138;-81
2022/10/29 09:00:08;;;;;;;15.55;7.70;;;;;;;17.48;94.92;101426.63;5044274;28;20045;-76
2022/10/29 09:03:00;;;;;;;15.93;8.03;;;;;;;17.62;94.23;101420.94;5043200;28;20144;-76
2022/10/29 09:06:10;;;;;;;9.27;5.47;;;;;;;17.77;93.63;101424.09;5040960;28;20052;-79
2022/10/29 09:09:13;;;;;;;8.57;5.40;;;;;;;17.73;92.55;101431.28;5047017;28;20063;-76
2022/10/29 09:12:13;;;;;;;14.50;6.70;;;;;;;17.71;92.19;101427.78;5047928;28;20380;-77
2022/10/29 09:15:10;;;;;;;13.50;6.90;;;;;;;17.76;92.77;101425.03;5042231;28;20521;-76
2022/10/29 09:18:19;;;;;;;13.30;6.57;;;;;;;17.80;91.93;101427.53;5050713;28;20651;-77
2022/10/29 09:21:46;;;;;;;11.70;6.22;;;;;;;17.93;90.95;101429.91;5051074;28;20048;-78
2022/10/29 09:25:20;;;;;;;18.35;7.72;;;;;;;18.07;90.10;101430.38;5054913;28;20056;-76
2022/10/29 09:28:13;;;;;;;16.63;6.07;;;;;;;18.26;90.11;101425.41;5045146;28;20045;-76
2022/10/29 09:31:09;;;;;;;11.85;6.07;;;;;;;18.44;88.89;101426.66;5056640;28;20275;-78
2022/10/29 09:34:06;;;;;;;9.93;6.40;;;;;;;18.66;87.39;101439.28;5047191;28;20048;-79
2022/10/29 09:36:53;;;;;;;11.13;6.45;;;;;;;18.83;85.13;101441.44;5055532;28;20044;-78
2022/10/29 09:39:42;;;;;;;10.45;5.55;;;;;;;19.01;85.31;101440.88;5050503;28;20041;-76
2022/10/29 09:42:41;;;;;;;13.18;7.05;;;;;;;19.28;82.15;101438.25;5041963;28;20049;-77
2022/10/29 09:46:29;;;;;;;11.90;5.78;;;;;;;19.39;80.81;101434.38;5044901;28;20059;-76
2022/10/29 09:49:25;;;;;;;14.32;5.95;;;;;;;19.52;81.60;101430.38;5054890;28;20629;-77
2022/10/29 09:52:19;;;;;;;12.38;6.82;;;;;;;19.59;80.42;101423.94;5049723;28;20135;-81
2022/10/29 09:55:15;;;;;;;10.32;5.75;;;;;;;19.61;79.55;101415.94;5049738;28;20072;-77
2022/10/29 09:58:02;;;;;;;15.25;5.75;;;;;;;19.60;78.14;101401.78;5041620;28;21169;-77
2022/10/29 10:00:51;;;;;;;9.90;5.50;;;;;;;19.63;79.32;101403.44;5042367;28;20154;-77
2022/10/29 10:03:45;;;;;;;17.75;5.90;;;;;;;19.58;78.41;101406.28;5043746;28;20078;-77
2022/10/29 10:07:05;;;;;;;10.75;6.55;;;;;;;19.48;77.52;101407.53;5041941;28;20041;-77
2022/10/29 10:10:01;;;;;;;9.63;5.07;;;;;;;19.32;79.33;101399.19;5042519;28;20060;-77
2022/10/29 10:12:50;;;;;;;22.00;5.95;;;;;;;19.23;79.54;101396.84;5056281;28;20115;-80
2022/10/29 10:15:37;;;;;;;14.27;5.75;;;;;;;19.11;79.50;101399.00;5047529;28;20063;-77
2022/10/29 10:18:32;;;;;;;10.02;5.05;;;;;;;19.10;80.21;101393.72;5048546;28;20141;-80
2022/10/29 10:21:28;;;;;;;7.53;4.80;;;;;;;19.14;79.71;101401.53;5050545;28;20045;-79
2022/10/29 10:24:42;;;;;;;15.02;6.28;;;;;;;19.23;79.02;101399.50;5042484;28;20060;-76
2022/10/29 10:27:32;;;;;;;14.00;6.57;;;;;;;19.30;78.80;101403.69;5041646;28;20051;-78
2022/10/29 10:30:22;;;;;;;11.25;6.80;;;;;;;19.42;78.38;101399.75;5059362;28;20503;-80
2022/10/29 10:33:27;;;;;;;16.48;6.53;;;;;;;19.45;77.00;101395.22;5048223;28;20667;-76
2022/10/29 10:36:14;;;;;;;15.50;6.72;;;;;;;19.45;77.85;101391.66;5049894;28;20399;-77
2022/10/29 10:39:01;;;;;;;12.60;6.60;;;;;;;19.44;77.88;101382.84;5042710;28;21011;-77
2022/10/29 10:41:50;;;;;;;10.00;5.18;;;;;;;19.49;77.98;101367.63;5040682;28;20033;-79
2022/10/29 10:44:43;;;;;;;12.35;6.18;;;;;;;19.49;77.73;101364.97;5043531;28;20521;-80
2022/10/29 10:47:36;;;;;;;13.57;5.82;;;;;;;19.54;77.85;101369.25;5049572;28;20048;-76
2022/10/29 10:50:29;;;;;;;15.13;6.20;;;;;;;19.61;76.91;101368.97;5047005;28;20036;-80
2022/10/29 10:53:20;;;;;;;11.82;6.07;;;;;;;19.68;76.75;101364.31;5038561;28;20049;-76
2022/10/29 10:56:20;;;;;;;8.95;5.68;;;;;;;19.72;76.35;101357.97;5039903;28;20606;-77
2022/10/29 10:59:13;;;;;;;12.52;5.78;;;;;;;19.82;75.84;101347.91;5059038;28;20091;-78
2022/10/29 11:02:02;;;;;;;11.73;5.93;;;;;;;19.85;75.00;101337.16;5045865;28;20049;-77
2022/10/29 11:05:00;;;;;;;15.38;6.25;;;;;;;19.69;75.79;101341.28;5039732;28;20056;-78
2022/10/29 11:08:15;;;;;;;17.63;6.15;;;;;;;19.66;75.76;101339.63;5049667;28;20051;-79
2022/10/29 11:11:10;;;;;;;;;;;;;;;19.64;75.09;101333.47;5059305;28;20045;-77
2022/10/29 11:14:35;;;;;;;12.52;5.00;;;;;;;19.63;75.82;101337.94;5045552;28;20326;-76
2022/10/29 11:17:41;;;;;;;9.68;5.53;;;;;;;19.71;75.71;101339.44;5048389;28;20067;-77
2022/10/29 11:20:35;;;;;;;15.90;5.53;;;;;;;19.77;75.48;101334.75;5054290;28;20058;-77
2022/10/29 11:23:57;;;;;;;12.68;5.20;;;;;;;19.80;75.28;101321.38;5055327;28;20505;-81
2022/10/29 11:26:54;;;;;;;51.85;29.20;;;;;;;19.88;75.04;101317.59;5040152;28;20052;-81
2022/10/29 11:30:04;;;;;;;11.15;6.18;;;;;;;19.98;75.41;101322.50;5047442;28;20044;-78
2022/10/29 11:33:31;;;;;;;9.80;4.85;;;;;;;20.21;74.33;101317.22;5028631;28;20049;-78
2022/10/29 11:36:31;;;;;;;16.08;6.38;;;;;;;20.35;73.42;101324.66;5021116;28;20143;-77
2022/10/29 11:39:28;;;;;;;13.07;5.13;;;;;;;20.35;73.86;101322.91;5041313;28;20498;-76
2022/10/29 11:42:15;;;;;;;10.95;6.20;;;;;;;20.50;73.27;101313.44;5049620;28;20058;-77
2022/10/29 11:45:05;;;;;;;8.90;4.30;;;;;;;20.67;72.71;101312.75;5043200;28;20064;-78
2022/10/29 11:48:17;;;;;;;8.75;5.05;;;;;;;20.86;70.99;101312.91;5047257;28;20126;-77
2022/10/29 11:52:03;;;;;;;9.05;5.03;;;;;;;20.95;70.39;101315.16;5042418;28;20063;-82
2022/10/29 11:54:58;;;;;;;;;;;;;;;21.14;69.38;101320.56;5045429;28;20112;-78
2022/10/29 11:58:16;;;;;;;8.77;5.03;;;;;;;21.36;68.68;101311.66;5046974;28;20498;-75
2022/10/29 12:01:20;;;;;;;8.38;4.43;;;;;;;21.52;68.09;101297.66;5044401;28;20281;-79
2022/10/29 12:04:33;;;;;;;13.65;4.63;;;;;;;21.62;67.46;101304.34;5040658;28;20045;-77
2022/10/29 12:07:32;;;;;;;15.63;5.43;;;;;;;21.65;67.45;101296.19;5043025;28;20045;-77
2022/10/29 12:10:56;;;;;;;11.43;4.60;;;;;;;21.70;67.17;101285.34;5057153;28;20783;-77
2022/10/29 12:14:15;;;;;;;10.20;4.55;;;;;;;21.59;66.67;101301.78;5048447;28;20172;-78
2022/10/29 12:17:32;;;;;;;12.90;4.47;;;;;;;21.42;67.30;101290.09;5050179;28;20080;-81
2022/10/29 12:21:05;;;;;;;9.32;4.65;;;;;;;21.26;68.65;101276.59;5049535;28;20091;-79
2022/10/29 12:24:18;;;;;;;8.02;4.40;;;;;;;21.18;68.54;101277.84;5030100;28;20212;-77
2022/10/29 12:27:13;;;;;;;4.78;3.33;;;;;;;21.16;68.86;101269.94;5045811;28;20155;-81
2022/10/29 12:30:04;;;;;;;8.85;4.38;;;;;;;21.11;69.08;101259.47;5040901;28;20041;-78
2022/10/29 12:33:42;;;;;;;12.90;3.45;;;;;;;21.12;69.01;101257.69;5046223;28;20376;-79
2022/10/29 12:36:49;;;;;;;9.50;4.00;;;;;;;21.35;68.00;101239.81;5052398;28;20102;-78
2022/10/29 12:39:47;;;;;;;6.45;4.97;;;;;;;21.49;67.30;101229.41;5040709;28;20072;-79
2022/10/29 12:42:35;;;;;;;12.90;3.97;;;;;;;21.45;67.78;101222.50;5042861;28;20040;-76
2022/10/29 12:45:42;;;;;;;14.40;4.45;;;;;;;21.60;66.86;101208.50;5044254;28;20098;-79
2022/10/29 12:48:47;;;;;;;9.40;4.10;;;;;;;21.90;66.25;101220.44;5038109;28;20101;-76
2022/10/29 12:52:06;;;;;;;7.90;4.57;;;;;;;22.05;65.84;101229.53;5039082;28;20037;-79
2022/10/29 12:54:54;;;;;;;11.07;4.68;;;;;;;21.90;66.73;101236.44;5032512;28;20072;-77
2022/10/29 12:57:41;;;;;;;9.18;4.22;;;;;;;21.58;67.47;101233.50;5032527;28;20076;-80
2022/10/29 13:00:46;;;;;;;8.05;3.95;;;;;;;21.22;68.19;101239.50;5035311;28;20524;-76
2022/10/29 13:03:55;;;;;;;14.63;4.82;;;;;;;20.95;69.45;101231.78;5032889;28;20126;-77
2022/10/29 13:06:41;;;;;;;12.82;4.40;;;;;;;20.72;70.56;101227.47;5051955;28;20076;-78
2022/10/29 13:09:34;;;;;;;11.85;3.88;;;;;;;20.51;71.61;101224.75;5052216;28;20071;-78
2022/10/29 13:13:04;;;;;;;11.77;4.18;;;;;;;20.32;72.47;101221.97;5042701;28;20049;-76
2022/10/29 13:15:57;;;;;;;6.05;3.25;;;;;;;20.24;73.06;101230.25;5048021;28;20049;-78
2022/10/29 13:19:04;;;;;;;6.72;3.67;;;;;;;20.22;73.39;101218.81;5055623;28;20640;-78